»·PEaware :: AAL581 KLAS-KSAN

AAL581 :: KLAS-KSAN

FLIGHT INFORMATION

Flight Status: Arrived
Operator:
American Airlines
More flights by this operator :: More flights under this callsign
Pilot: Sanjiv S. (4490)
Aircraft: AIRBUS A320
(A320)
More flights by this aircraft type
Origin: KLAS McCarran Intl
United States
Destination: KSAN San Diego Intl-Lindbergh
United States
More flights between these airports :: More routes between these airports
Route: BOACH8 LVELL LUCKI1
File this flight plan on PilotEdge
Remarks:
Altitude:
(Current/Filed)
28,000ft
Speed:
(Current/Filed)
450kts
Departed: 01-Dec-18 08:39 PM
Arrived: 01-Dec-18 09:25 PM
Distance/Time
Traveled:
225nm/0:45
Distance/Time
To Go:
Arrived

Flight Plot

Page will automatically refresh every two minutes.

Flight plan parsing failed; only flown route is shown


Map Options




Map Legend


Flown Route
Filed Route
Departure Airport
Arrival Airport
Navaid (VOR, NDB)
Fix

Horizontal Profiles

Position Reports

Time Latitude Longitude Heading Altitude Ground
Speed
01-Dec-18 20:15 36.081377 -115.135679 243 2120ft 0kts
01-Dec-18 20:16 36.081377 -115.135679 243 2120ft 0kts
01-Dec-18 20:17 36.081377 -115.135679 243 2120ft 0kts
01-Dec-18 20:18 36.081377 -115.135679 243 2120ft 0kts
01-Dec-18 20:19 36.081377 -115.135679 243 2120ft 0kts
01-Dec-18 20:20 36.081377 -115.135679 243 2120ft 0kts
01-Dec-18 20:21 36.081377 -115.135679 243 2120ft 0kts
01-Dec-18 20:22 36.081377 -115.135679 243 2120ft 0kts
01-Dec-18 20:23 36.081377 -115.135679 243 2120ft 0kts
01-Dec-18 20:24 36.081377 -115.135679 243 2120ft 0kts
01-Dec-18 20:25 36.081377 -115.135679 243 2120ft 0kts
01-Dec-18 20:26 36.081377 -115.135679 243 2120ft 0kts
01-Dec-18 20:27 36.081457 -115.135481 243 2120ft 2kts
01-Dec-18 20:28 36.081665 -115.135051 209 2120ft 2kts
01-Dec-18 20:29 36.081942 -115.135034 137 2120ft 4kts
01-Dec-18 20:30 36.081698 -115.134720 133 2120ft 0kts
01-Dec-18 20:31 36.081698 -115.134720 133 2120ft 0kts
01-Dec-18 20:32 36.081698 -115.134720 133 2120ft 0kts
01-Dec-18 20:33 36.081684 -115.134703 133 2120ft 0kts
01-Dec-18 20:34 36.081192 -115.134066 133 2120ft 3kts
01-Dec-18 20:35 36.080141 -115.133745 181 2120ft 5kts
01-Dec-18 20:36 36.078476 -115.133675 158 2120ft 6kts
01-Dec-18 20:37 36.077539 -115.131652 89 2120ft 8kts
01-Dec-18 20:38 36.077545 -115.128067 89 2120ft 15kts
01-Dec-18 20:39 36.077536 -115.121638 105 2120ft 11kts
01-Dec-18 20:40 36.077473 -115.121474 124 2120ft 0kts
01-Dec-18 20:41 36.076874 -115.121169 176 2120ft 8kts
01-Dec-18 20:42 36.076408 -115.124303 269 2120ft 51kts
01-Dec-18 20:43 36.076601 -115.173642 270 4314ft 171kts
01-Dec-18 20:44 36.071158 -115.243960 239 6886ft 250kts
01-Dec-18 20:45 36.005126 -115.286364 202 10304ft 286kts
01-Dec-18 20:46 35.917750 -115.308270 187 12403ft 350kts
01-Dec-18 20:47 35.819675 -115.310908 179 15384ft 366kts
01-Dec-18 20:48 35.716463 -115.299070 181 17920ft 380kts
01-Dec-18 20:49 35.610414 -115.297416 190 20157ft 387kts
01-Dec-18 20:50 35.501043 -115.301740 191 22156ft 400kts
01-Dec-18 20:51 35.388250 -115.306206 192 23926ft 412kts
01-Dec-18 20:52 35.271993 -115.310789 193 25530ft 424kts
01-Dec-18 20:53 35.152840 -115.315476 194 26959ft 435kts
01-Dec-18 20:54 35.030629 -115.320249 194 27867ft 444kts
01-Dec-18 20:55 34.904474 -115.325235 192 27870ft 463kts
01-Dec-18 20:56 34.776958 -115.334468 204 27874ft 449kts
01-Dec-18 20:57 34.662140 -115.382959 210 27869ft 436kts
01-Dec-18 20:58 34.548081 -115.432825 210 27944ft 435kts
01-Dec-18 20:59 34.434522 -115.482312 210 27959ft 436kts
01-Dec-18 21:00 34.321318 -115.533924 218 27979ft 427kts
01-Dec-18 21:01 34.220733 -115.606789 219 28000ft 424kts
01-Dec-18 21:02 34.110426 -115.662086 211 27998ft 435kts
01-Dec-18 21:03 33.998229 -115.714958 211 27959ft 437kts
01-Dec-18 21:04 33.885250 -115.768643 212 27928ft 435kts
01-Dec-18 21:05 33.774610 -115.823033 212 27922ft 434kts
01-Dec-18 21:06 33.666032 -115.873815 212 27156ft 394kts
01-Dec-18 21:07 33.566627 -115.920315 212 26258ft 381kts
01-Dec-18 21:08 33.488930 -115.989509 243 25065ft 331kts
01-Dec-18 21:09 33.437551 -116.078058 243 23451ft 316kts
01-Dec-18 21:10 33.388826 -116.161833 243 21907ft 306kts
01-Dec-18 21:11 33.339759 -116.243852 232 20318ft 307kts
01-Dec-18 21:12 33.262362 -116.294187 214 18620ft 318kts
01-Dec-18 21:13 33.177030 -116.344119 212 16809ft 340kts
01-Dec-18 21:14 33.094052 -116.392477 212 15100ft 325kts
01-Dec-18 21:15 33.014372 -116.438996 213 13373ft 315kts
01-Dec-18 21:16 32.947927 -116.502339 225 11706ft 301kts
01-Dec-18 21:17 32.885780 -116.564987 225 10260ft 290kts
01-Dec-18 21:18 32.826650 -116.624473 224 9227ft 273kts
01-Dec-18 21:19 32.783420 -116.668020 223 8233ft 269kts
01-Dec-18 21:20 32.739686 -116.750169 243 6783ft 259kts
01-Dec-18 21:21 32.705777 -116.823331 250 5956ft 240kts
01-Dec-18 21:22 32.683812 -116.894267 252 5234ft 222kts
01-Dec-18 21:23 32.677587 -116.960065 286 4736ft 197kts
01-Dec-18 21:24 32.692134 -117.019301 286 4281ft 179kts
01-Dec-18 21:25 32.704636 -117.070615 286 3417ft 158kts
01-Dec-18 21:26 32.716212 -117.118183 285 2411ft 130kts
01-Dec-18 21:27 32.727468 -117.164976 286 790ft 152kts
01-Dec-18 21:28 32.736604 -117.202202 285 24ft 30kts
01-Dec-18 21:29 32.735899 -117.203690 106 24ft 0kts
01-Dec-18 21:30 32.734747 -117.202189 200 24ft 15kts
01-Dec-18 21:31 32.732511 -117.202786 199 24ft 3kts
01-Dec-18 21:32 32.732304 -117.202874 200 24ft 0kts
01-Dec-18 21:33 32.732304 -117.202874 200 24ft 0kts

Navigation Log

Ident Type
Flight plan parsing failed, navigation log unavailable